createdAt,value
2022-11-17T00:00:39.571Z,4.60
2022-11-17T00:03:07.432Z,5.82
2022-11-17T00:05:36.148Z,6.85
2022-11-17T00:08:04.028Z,6.68
2022-11-17T00:10:31.327Z,6.57
2022-11-17T00:13:12.837Z,5.60
2022-11-17T00:15:43.801Z,6.00
2022-11-17T00:18:24.577Z,5.38
2022-11-17T00:21:05.967Z,4.90
2022-11-17T00:23:53.886Z,5.00
2022-11-17T00:26:27.030Z,4.85
2022-11-17T00:28:56.629Z,4.78
2022-11-17T00:31:39.999Z,3.17
2022-11-17T00:34:10.197Z,3.35
2022-11-17T00:36:54.762Z,3.58
2022-11-17T00:39:23.778Z,2.75
2022-11-17T00:41:51.446Z,4.03
2022-11-17T00:44:19.412Z,4.85
2022-11-17T00:46:47.051Z,4.22
2022-11-17T00:49:14.812Z,4.75
2022-11-17T00:51:42.595Z,5.10
2022-11-17T00:54:12.570Z,4.38
2022-11-17T00:56:40.339Z,2.80
2022-11-17T00:59:08.271Z,3.53
2022-11-17T01:01:36.540Z,4.13
2022-11-17T01:04:04.837Z,3.97
2022-11-17T01:06:47.458Z,1.88
2022-11-17T01:09:17.829Z,3.47
2022-11-17T01:11:45.557Z,3.05
2022-11-17T01:14:16.030Z,2.40
2022-11-17T01:16:44.152Z,2.80
2022-11-17T01:19:13.357Z,3.45
2022-11-17T01:21:40.706Z,3.65
2022-11-17T01:24:11.402Z,2.25
2022-11-17T01:26:39.962Z,3.65
2022-11-17T01:29:08.441Z,2.97
2022-11-17T01:31:43.607Z,3.00
2022-11-17T01:34:11.427Z,2.83
2022-11-17T01:36:55.582Z,2.88
2022-11-17T01:39:25.558Z,2.78
2022-11-17T01:41:53.663Z,3.22
2022-11-17T01:44:49.246Z,1.90
2022-11-17T01:47:22.473Z,2.90
2022-11-17T01:49:52.372Z,2.38
2022-11-17T01:52:19.867Z,2.65
2022-11-17T01:54:48.414Z,2.33
2022-11-17T01:57:22.388Z,3.00
2022-11-17T01:59:55.193Z,1.73
2022-11-17T02:02:23.012Z,2.40
2022-11-17T02:05:10.286Z,1.80
2022-11-17T02:07:39.498Z,1.63
2022-11-17T02:10:07.819Z,2.42
2022-11-17T02:12:36.082Z,2.85
2022-11-17T02:15:04.900Z,2.10
2022-11-17T02:17:37.520Z,1.33
2022-11-17T02:20:37.015Z,2.00
2022-11-17T02:23:19.477Z,2.25
2022-11-17T02:26:06.885Z,2.67
2022-11-17T02:28:49.120Z,2.63
2022-11-17T02:31:45.738Z,2.45
2022-11-17T02:34:27.268Z,2.40
2022-11-17T02:36:59.285Z,2.47
2022-11-17T02:39:33.571Z,2.65
2022-11-17T02:42:12.317Z,2.72
2022-11-17T02:44:45.731Z,2.55
2022-11-17T02:47:28.131Z,3.20
2022-11-17T02:50:07.059Z,1.45
2022-11-17T02:52:35.100Z,1.80
2022-11-17T02:55:08.557Z,2.03
2022-11-17T02:57:38.244Z,3.08
2022-11-17T03:00:28.229Z,4.00
2022-11-17T03:03:15.684Z,3.15
2022-11-17T03:05:56.469Z,3.35
2022-11-17T03:08:54.490Z,2.95
2022-11-17T03:11:24.182Z,2.90
2022-11-17T03:14:01.826Z,3.40
2022-11-17T03:16:47.333Z,2.22
2022-11-17T03:19:17.830Z,3.45
2022-11-17T03:21:48.669Z,3.47
2022-11-17T03:24:20.996Z,4.20
2022-11-17T03:26:52.727Z,2.40
2022-11-17T03:29:22.258Z,3.73
2022-11-17T03:31:52.675Z,3.83
2022-11-17T03:34:22.677Z,4.25
2022-11-17T03:36:52.958Z,3.60
2022-11-17T03:39:28.715Z,4.22
2022-11-17T03:42:01.898Z,3.90
2022-11-17T03:44:31.370Z,3.70
2022-11-17T03:49:45.535Z,4.03
2022-11-17T03:52:13.471Z,2.97
2022-11-17T03:54:41.230Z,3.03
2022-11-17T03:57:19.926Z,4.00
2022-11-17T03:59:54.294Z,3.92
2022-11-17T04:02:22.529Z,3.13
2022-11-17T04:05:04.275Z,3.42
2022-11-17T04:07:33.888Z,3.40
2022-11-17T04:10:01.781Z,3.30
2022-11-17T04:12:43.022Z,3.22
2022-11-17T04:15:25.045Z,3.50
2022-11-17T04:17:52.664Z,3.40
2022-11-17T04:20:20.438Z,3.80
2022-11-17T04:23:07.269Z,3.25
2022-11-17T04:25:50.094Z,3.88
2022-11-17T04:28:31.407Z,4.00
2022-11-17T04:30:59.221Z,3.85
2022-11-17T04:33:26.599Z,4.18
2022-11-17T04:35:54.134Z,3.88
2022-11-17T04:38:21.580Z,3.53
2022-11-17T04:41:03.382Z,3.30
2022-11-17T04:43:30.794Z,3.72
2022-11-17T04:46:00.203Z,3.90
2022-11-17T04:48:28.438Z,3.65
2022-11-17T04:50:56.816Z,3.95
2022-11-17T04:53:24.804Z,3.88
2022-11-17T04:55:52.290Z,3.88
2022-11-17T04:58:19.561Z,2.95
2022-11-17T05:00:47.131Z,3.60
2022-11-17T05:03:14.540Z,4.07
2022-11-17T05:05:45.610Z,4.03
2022-11-17T05:08:13.043Z,3.70
2022-11-17T05:10:55.699Z,3.60
2022-11-17T05:13:25.070Z,3.03
2022-11-17T05:16:07.930Z,4.30
2022-11-17T05:18:35.252Z,3.88
2022-11-17T05:21:04.484Z,2.63
2022-11-17T05:23:45.983Z,3.60
2022-11-17T05:26:13.929Z,3.72
2022-11-17T05:28:41.362Z,3.88
2022-11-17T05:31:09.361Z,3.85
2022-11-17T05:33:38.087Z,2.90
2022-11-17T05:36:06.310Z,3.30
2022-11-17T05:38:33.704Z,3.53
2022-11-17T05:41:01.794Z,2.95
2022-11-17T05:43:29.090Z,4.55
2022-11-17T05:45:56.649Z,3.28
2022-11-17T05:48:24.091Z,3.50
2022-11-17T05:50:56.010Z,3.38
2022-11-17T05:53:24.142Z,2.78
2022-11-17T05:55:52.057Z,3.58
2022-11-17T05:58:23.549Z,2.20
2022-11-17T06:00:52.217Z,3.33
2022-11-17T06:03:24.166Z,2.25
2022-11-17T06:05:53.031Z,1.95
2022-11-17T06:08:20.654Z,2.20
2022-11-17T06:10:47.882Z,3.42
2022-11-17T06:13:15.706Z,3.40
2022-11-17T06:15:43.322Z,2.80
2022-11-17T06:18:13.785Z,2.97
2022-11-17T06:20:44.910Z,4.78
2022-11-17T06:23:12.655Z,2.65
2022-11-17T06:25:40.234Z,3.97
2022-11-17T06:28:11.591Z,3.55
2022-11-17T06:30:39.248Z,3.60
2022-11-17T06:33:12.145Z,4.15
2022-11-17T06:35:40.322Z,2.92
2022-11-17T06:38:08.091Z,3.05
2022-11-17T06:40:35.482Z,3.20
2022-11-17T06:43:09.926Z,2.83
2022-11-17T06:45:47.463Z,2.35
2022-11-17T06:48:16.806Z,2.42
2022-11-17T06:50:44.902Z,2.55
2022-11-17T06:53:12.886Z,2.67
2022-11-17T06:55:40.416Z,2.90
2022-11-17T06:58:11.693Z,2.75
2022-11-17T07:00:39.179Z,2.47
2022-11-17T07:03:09.316Z,2.70
2022-11-17T07:05:40.087Z,2.80
2022-11-17T07:08:09.323Z,2.47
2022-11-17T07:10:37.380Z,2.45
2022-11-17T07:13:04.980Z,1.33
2022-11-17T07:15:32.327Z,1.58
2022-11-17T07:17:59.917Z,2.10
2022-11-17T07:20:27.489Z,1.40
2022-11-17T07:22:59.855Z,2.13
2022-11-17T07:25:27.292Z,2.60
2022-11-17T07:27:59.463Z,2.08
2022-11-17T07:30:27.117Z,1.98
2022-11-17T07:32:55.132Z,2.60
2022-11-17T07:35:22.666Z,2.38
2022-11-17T07:37:50.277Z,2.08
2022-11-17T07:40:17.900Z,2.13
2022-11-17T07:42:50.041Z,1.70
2022-11-17T07:45:17.797Z,1.55
2022-11-17T07:47:45.380Z,2.05
2022-11-17T07:50:12.589Z,2.78
2022-11-17T07:52:41.597Z,2.03
2022-11-17T07:55:09.272Z,2.45
2022-11-17T07:57:36.954Z,2.33
2022-11-17T08:00:04.630Z,2.60
2022-11-17T08:02:40.629Z,3.20
2022-11-17T08:05:08.373Z,3.45
2022-11-17T08:07:36.105Z,3.00
2022-11-17T08:10:04.427Z,3.42
2022-11-17T08:12:32.001Z,4.25
2022-11-17T08:14:59.560Z,2.63
2022-11-17T08:17:27.852Z,2.78
2022-11-17T08:19:55.347Z,3.50
2022-11-17T08:22:23.228Z,4.10
2022-11-17T08:24:50.722Z,3.60
2022-11-17T08:27:18.516Z,3.83
2022-11-17T08:29:46.025Z,3.05
2022-11-17T08:32:13.762Z,2.10
2022-11-17T08:34:41.165Z,3.92
2022-11-17T08:37:08.860Z,4.03
2022-11-17T08:39:36.284Z,4.25
2022-11-17T08:42:04.156Z,4.10
2022-11-17T08:44:31.614Z,4.03
2022-11-17T08:46:59.404Z,3.20
2022-11-17T08:49:26.802Z,3.65
2022-11-17T08:51:54.481Z,3.03
2022-11-17T08:54:22.729Z,3.95
2022-11-17T08:56:50.619Z,4.38
2022-11-17T08:59:18.519Z,5.10
2022-11-17T09:01:46.467Z,4.88
2022-11-17T09:04:14.164Z,4.78
2022-11-17T09:06:41.869Z,4.20
2022-11-17T09:09:09.260Z,2.80
2022-11-17T09:11:37.071Z,3.47
2022-11-17T09:14:07.145Z,3.75
2022-11-17T09:16:35.748Z,3.88
2022-11-17T09:19:03.161Z,4.35
2022-11-17T09:21:32.238Z,4.10
2022-11-17T09:23:59.738Z,3.88
2022-11-17T09:26:27.554Z,5.10
2022-11-17T09:28:55.152Z,4.75
2022-11-17T09:31:23.770Z,5.43
2022-11-17T09:33:51.142Z,4.90
2022-11-17T09:36:19.047Z,3.35
2022-11-17T09:38:47.198Z,5.60
2022-11-17T09:41:36.651Z,4.50
2022-11-17T09:44:25.763Z,4.57
2022-11-17T09:47:08.090Z,5.70
2022-11-17T09:49:44.333Z,4.85
2022-11-17T09:52:38.687Z,5.85
2022-11-17T09:55:09.053Z,4.85
2022-11-17T09:57:43.079Z,4.47
2022-11-17T10:00:21.433Z,4.00
2022-11-17T10:02:51.053Z,6.22
2022-11-17T10:05:37.453Z,5.93
2022-11-17T10:08:12.294Z,4.15
2022-11-17T10:10:50.472Z,6.00
2022-11-17T10:13:27.603Z,5.35
2022-11-17T10:15:58.221Z,5.50
2022-11-17T10:18:26.317Z,5.57
2022-11-17T10:20:53.629Z,3.25
2022-11-17T10:23:22.446Z,4.68
2022-11-17T10:25:57.950Z,3.88
2022-11-17T10:28:31.953Z,6.15
2022-11-17T10:31:16.686Z,5.35
2022-11-17T10:33:49.615Z,5.32
2022-11-17T10:36:31.174Z,3.95
2022-11-17T10:39:00.106Z,3.30
2022-11-17T10:41:39.632Z,5.88
2022-11-17T10:44:19.658Z,5.65
2022-11-17T10:47:07.388Z,4.50
2022-11-17T10:49:36.763Z,5.43
2022-11-17T10:52:24.319Z,7.10
2022-11-17T10:54:52.269Z,4.00
2022-11-17T10:57:24.391Z,6.82
2022-11-17T10:59:57.753Z,4.82
2022-11-17T11:02:31.276Z,6.53
2022-11-17T11:05:25.137Z,7.35
2022-11-17T11:08:22.695Z,7.78
2022-11-17T11:11:19.395Z,6.47
2022-11-17T11:14:45.589Z,3.72
2022-11-17T11:17:15.382Z,5.13
2022-11-17T11:19:47.551Z,3.25
2022-11-17T11:22:47.134Z,8.93
2022-11-17T11:25:42.544Z,9.40
2022-11-17T11:28:31.734Z,6.32
2022-11-17T11:31:23.711Z,6.53
2022-11-17T11:33:54.573Z,6.00
2022-11-17T11:36:29.960Z,4.57
2022-11-17T11:39:03.566Z,5.55
2022-11-17T11:41:39.801Z,5.40
2022-11-17T11:44:19.580Z,5.00
2022-11-17T11:47:27.278Z,6.05
2022-11-17T11:49:58.513Z,5.05
2022-11-17T11:52:32.971Z,6.05
2022-11-17T11:55:10.651Z,3.75
2022-11-17T11:57:42.532Z,4.43
2022-11-17T12:00:19.451Z,4.53
2022-11-17T12:03:19.088Z,4.68
2022-11-17T12:06:30.445Z,4.68
2022-11-17T12:09:13.050Z,5.90
2022-11-17T12:12:01.719Z,4.97
2022-11-17T12:14:35.607Z,4.63
2022-11-17T12:17:17.312Z,4.68
2022-11-17T12:19:44.802Z,4.45
2022-11-17T12:22:35.236Z,5.82
2022-11-17T12:25:30.673Z,5.80
2022-11-17T12:27:58.336Z,5.03
2022-11-17T12:30:31.219Z,4.13
2022-11-17T12:33:06.330Z,5.20
2022-11-17T12:35:39.149Z,5.65
2022-11-17T12:38:20.046Z,5.88
2022-11-17T12:40:51.016Z,5.53
2022-11-17T12:43:23.756Z,5.68
2022-11-17T12:45:53.746Z,5.07
2022-11-17T12:48:38.830Z,5.57
2022-11-17T12:51:11.333Z,6.10
2022-11-17T12:54:02.231Z,5.00
2022-11-17T12:56:47.613Z,5.85
2022-11-17T12:59:36.629Z,6.00
2022-11-17T13:02:39.745Z,5.22
2022-11-17T13:05:14.863Z,4.20
2022-11-17T13:07:42.366Z,4.80
2022-11-17T13:10:29.860Z,4.43
2022-11-17T13:13:20.336Z,4.85
2022-11-17T13:16:01.255Z,4.90
2022-11-17T13:18:42.388Z,4.25
2022-11-17T13:21:29.932Z,4.75
2022-11-17T13:23:58.693Z,4.03
2022-11-17T13:26:31.503Z,4.53
2022-11-17T13:29:06.447Z,4.55
2022-11-17T13:31:34.611Z,4.55
2022-11-17T13:34:12.818Z,5.00
2022-11-17T13:37:00.487Z,7.18
2022-11-17T13:39:28.664Z,4.70
2022-11-17T13:41:57.121Z,5.38
2022-11-17T13:44:26.075Z,5.68
2022-11-17T13:46:53.808Z,5.55
2022-11-17T13:49:39.856Z,7.20
2022-11-17T13:52:24.217Z,7.35
2022-11-17T13:54:51.865Z,5.30
2022-11-17T13:57:25.954Z,6.25
2022-11-17T13:59:53.904Z,5.90
2022-11-17T14:02:21.562Z,6.15
2022-11-17T14:05:19.897Z,6.40
2022-11-17T14:07:48.128Z,6.72
2022-11-17T14:10:21.799Z,6.72
2022-11-17T14:12:53.497Z,5.70
2022-11-17T14:15:27.826Z,5.88
2022-11-17T14:18:05.775Z,5.65
2022-11-17T14:20:35.414Z,6.07
2022-11-17T14:23:18.050Z,6.00
2022-11-17T14:25:50.252Z,5.97
2022-11-17T14:28:19.620Z,6.90
2022-11-17T14:30:55.088Z,7.97
2022-11-17T14:33:23.499Z,7.30
2022-11-17T14:35:54.174Z,6.32
2022-11-17T14:38:22.224Z,6.82
2022-11-17T14:40:51.742Z,6.88
2022-11-17T14:43:21.119Z,7.18
2022-11-17T14:45:49.871Z,6.57
2022-11-17T14:48:19.466Z,6.85
2022-11-17T14:50:47.928Z,8.48
2022-11-17T14:53:15.764Z,6.80
2022-11-17T14:55:43.453Z,7.55
2022-11-17T14:58:11.162Z,7.78
2022-11-17T15:00:38.518Z,7.72
2022-11-17T15:03:06.040Z,7.53
2022-11-17T15:05:33.435Z,7.72
2022-11-17T15:08:01.020Z,7.63
2022-11-17T15:10:28.224Z,7.32
2022-11-17T15:12:55.997Z,8.02
2022-11-17T15:15:23.447Z,8.15
2022-11-17T15:17:51.056Z,9.00
2022-11-17T15:20:18.244Z,8.50
2022-11-17T15:22:45.690Z,8.52
2022-11-17T15:25:12.925Z,7.97
2022-11-17T15:27:40.616Z,8.45
2022-11-17T15:30:08.546Z,8.02
2022-11-17T15:32:36.983Z,10.13
2022-11-17T15:35:04.565Z,14.82
2022-11-17T15:37:32.280Z,12.68
2022-11-17T15:39:59.566Z,10.73
2022-11-17T15:42:27.196Z,12.35
2022-11-17T15:44:54.405Z,11.52
2022-11-17T15:47:21.951Z,12.48
2022-11-17T15:49:49.356Z,14.73
2022-11-17T15:52:19.559Z,16.15
2022-11-17T15:54:57.602Z,16.35
2022-11-17T15:57:26.026Z,15.35
2022-11-17T15:59:53.579Z,15.90
2022-11-17T16:02:21.253Z,16.63
2022-11-17T16:04:48.537Z,15.50
2022-11-17T16:07:16.272Z,13.65
2022-11-17T16:09:47.520Z,13.52
2022-11-17T16:12:18.389Z,12.65
2022-11-17T16:14:45.635Z,17.33
2022-11-17T16:17:13.303Z,15.65
2022-11-17T16:19:40.680Z,16.05
2022-11-17T16:22:08.356Z,15.90
2022-11-17T16:24:35.508Z,16.27
2022-11-17T16:27:03.427Z,17.90
2022-11-17T16:29:30.574Z,20.98
2022-11-17T16:31:58.368Z,20.77
2022-11-17T16:34:26.376Z,27.00
2022-11-17T16:36:54.107Z,26.95
2022-11-17T16:39:21.360Z,31.65
2022-11-17T16:41:51.491Z,23.52
2022-11-17T16:44:18.979Z,24.20
2022-11-17T16:46:48.496Z,17.52
2022-11-17T16:49:18.280Z,18.13
2022-11-17T16:51:49.530Z,18.35
2022-11-17T16:54:17.061Z,18.60
2022-11-17T16:56:44.666Z,18.52
2022-11-17T16:59:12.653Z,18.42
2022-11-17T17:01:40.312Z,17.27
2022-11-17T17:04:09.078Z,18.17
2022-11-17T17:06:40.471Z,18.65
2022-11-17T17:09:09.161Z,17.48
2022-11-17T17:11:37.172Z,19.95
2022-11-17T17:14:06.559Z,20.83
2022-11-17T17:16:35.888Z,19.40
2022-11-17T17:19:05.257Z,18.52
2022-11-17T17:21:33.881Z,19.80
2022-11-17T17:24:01.332Z,18.95
2022-11-17T17:26:32.079Z,19.63
2022-11-17T17:29:00.940Z,18.67
2022-11-17T17:31:37.108Z,17.67
2022-11-17T17:34:06.324Z,19.35
2022-11-17T17:36:35.177Z,19.02
2022-11-17T17:39:02.919Z,18.90
2022-11-17T17:41:38.171Z,19.20
2022-11-17T17:44:07.341Z,20.40
2022-11-17T17:46:39.552Z,20.70
2022-11-17T17:49:07.076Z,20.70
2022-11-17T17:51:40.252Z,20.10
2022-11-17T17:56:35.315Z,17.55
2022-11-17T17:59:02.819Z,19.27
2022-11-17T18:01:33.647Z,19.50
2022-11-17T18:04:05.148Z,22.55
2022-11-17T18:06:41.038Z,20.60
2022-11-17T18:09:10.787Z,18.90
2022-11-17T18:11:46.111Z,19.05
2022-11-17T18:14:14.013Z,19.10
2022-11-17T18:16:41.708Z,18.52
2022-11-17T18:19:09.758Z,19.10
2022-11-17T18:21:37.382Z,18.58
2022-11-17T18:24:04.902Z,19.67
2022-11-17T18:26:34.260Z,18.80
2022-11-17T18:29:05.109Z,20.10
2022-11-17T18:31:35.205Z,20.38
2022-11-17T18:34:08.142Z,20.00
2022-11-17T18:36:36.004Z,19.58
2022-11-17T18:39:03.742Z,22.17
2022-11-17T18:41:33.694Z,19.42
2022-11-17T18:44:01.618Z,20.27
2022-11-17T18:46:31.779Z,19.95
2022-11-17T18:49:00.045Z,18.92
2022-11-17T18:51:29.620Z,20.48
2022-11-17T18:53:59.150Z,19.42
2022-11-17T18:56:29.239Z,20.70
2022-11-17T18:58:56.813Z,19.35
2022-11-17T19:01:27.997Z,21.30
2022-11-17T19:03:57.301Z,20.92
2022-11-17T19:06:25.989Z,22.15
2022-11-17T19:08:54.063Z,20.85
2022-11-17T19:11:22.666Z,22.38
2022-11-17T19:13:50.093Z,22.42
2022-11-17T19:16:25.652Z,22.63
2022-11-17T19:18:54.435Z,23.30
2022-11-17T19:21:30.371Z,23.95
2022-11-17T19:23:59.224Z,23.30
2022-11-17T19:26:32.662Z,24.23
2022-11-17T19:31:29.273Z,20.80
2022-11-17T19:33:58.053Z,19.73
2022-11-17T19:36:31.068Z,20.48
2022-11-17T19:39:00.669Z,22.45
2022-11-17T19:41:34.045Z,20.83
2022-11-17T19:44:04.167Z,22.27
2022-11-17T19:46:32.382Z,22.10
2022-11-17T19:49:00.011Z,22.20
2022-11-17T19:51:29.703Z,20.75
2022-11-17T19:53:58.629Z,22.25
2022-11-17T19:56:26.733Z,23.00
2022-11-17T19:58:54.311Z,22.75
2022-11-17T20:01:24.620Z,24.73
2022-11-17T20:03:52.047Z,23.17
2022-11-17T20:06:22.399Z,23.33
2022-11-17T20:08:49.849Z,26.05
2022-11-17T20:11:22.840Z,24.98
2022-11-17T20:13:50.378Z,25.45
2022-11-17T20:16:20.148Z,24.42
2022-11-17T20:18:53.420Z,23.52
2022-11-17T20:21:22.046Z,26.00
2022-11-17T20:23:49.606Z,27.10
2022-11-17T20:26:19.476Z,26.08
2022-11-17T20:28:47.966Z,27.63
2022-11-17T20:31:20.621Z,26.05
2022-11-17T20:33:49.127Z,27.33
2022-11-17T20:36:20.131Z,25.13
2022-11-17T20:38:51.926Z,26.48
2022-11-17T20:41:21.280Z,27.73
2022-11-17T20:43:49.676Z,28.05
2022-11-17T20:46:17.864Z,30.02
2022-11-17T20:48:45.322Z,28.63
2022-11-17T20:51:15.624Z,29.15
2022-11-17T20:53:43.183Z,26.77
2022-11-17T20:56:12.393Z,28.98
2022-11-17T20:58:39.991Z,28.13
2022-11-17T21:01:14.635Z,27.65
2022-11-17T21:03:42.361Z,26.73
2022-11-17T21:06:10.710Z,28.42
2022-11-17T21:08:40.096Z,25.77
2022-11-17T21:11:09.904Z,26.10
2022-11-17T21:13:39.053Z,27.98
2022-11-17T21:16:16.018Z,29.52
2022-11-17T21:18:47.881Z,27.40
2022-11-17T21:21:15.827Z,29.00
2022-11-17T21:23:46.871Z,28.38
2022-11-17T21:26:17.265Z,27.90
2022-11-17T21:28:44.949Z,27.15
2022-11-17T21:31:14.900Z,26.75
2022-11-17T21:33:43.505Z,25.20
2022-11-17T21:36:16.985Z,23.98
2022-11-17T21:38:45.257Z,26.15
2022-11-17T21:41:13.871Z,28.20
2022-11-17T21:43:42.523Z,31.95
2022-11-17T21:46:21.078Z,29.50
2022-11-17T21:48:49.187Z,29.70
2022-11-17T21:51:22.182Z,29.45
2022-11-17T21:54:00.246Z,28.25
2022-11-17T21:56:28.985Z,27.10
2022-11-17T21:58:57.484Z,26.10
2022-11-17T22:01:25.818Z,26.52
2022-11-17T22:03:53.447Z,24.85
2022-11-17T22:06:23.084Z,24.65
2022-11-17T22:08:50.932Z,23.65
2022-11-17T22:11:36.293Z,25.38
2022-11-17T22:14:08.428Z,24.17
2022-11-17T22:16:42.126Z,23.23
2022-11-17T22:19:10.069Z,24.02
2022-11-17T22:21:38.491Z,24.08
2022-11-17T22:24:07.374Z,22.67
2022-11-17T22:26:38.159Z,24.67
2022-11-17T22:29:06.917Z,25.42
2022-11-17T22:31:34.388Z,25.92
2022-11-17T22:34:02.099Z,24.60
2022-11-17T22:36:29.696Z,26.30
2022-11-17T22:38:56.841Z,25.67
2022-11-17T22:41:24.811Z,25.80
2022-11-17T22:43:55.861Z,24.55
2022-11-17T22:46:25.753Z,23.95
2022-11-17T22:48:53.871Z,24.73
2022-11-17T22:51:40.508Z,23.73
2022-11-17T22:54:08.563Z,23.50
2022-11-17T22:56:36.021Z,23.42
2022-11-17T22:59:03.942Z,22.45
2022-11-17T23:01:31.584Z,24.38
2022-11-17T23:03:59.147Z,21.40
2022-11-17T23:06:29.833Z,21.67
2022-11-17T23:08:58.397Z,20.75
2022-11-17T23:11:42.099Z,22.90
2022-11-17T23:14:12.018Z,22.00
2022-11-17T23:16:41.110Z,22.52
2022-11-17T23:19:12.474Z,23.92
2022-11-17T23:21:40.641Z,20.70
2022-11-17T23:24:10.030Z,20.50
2022-11-17T23:26:38.011Z,19.35
2022-11-17T23:29:05.686Z,18.25
2022-11-17T23:31:33.499Z,17.45
2022-11-17T23:34:00.828Z,19.25
2022-11-17T23:36:28.493Z,19.13
2022-11-17T23:38:57.842Z,18.55
2022-11-17T23:41:25.424Z,19.00
2022-11-17T23:43:53.875Z,18.83
2022-11-17T23:46:23.894Z,17.35
2022-11-17T23:48:51.692Z,18.25
2022-11-17T23:51:21.536Z,18.27
2022-11-17T23:53:49.743Z,19.08
2022-11-17T23:56:19.282Z,17.23
2022-11-17T23:58:46.583Z,17.13
